Time;durP1;ratioP1;P1;durP2;ratioP2;P2;SDS_P1;SDS_P2;PMS_P1;PMS_P2;Temp;Humidity;BMP_temperature;BMP_pressure;BME280_temperature;BME280_humidity;BME280_pressure;Samples;Min_cycle;Max_cycle;Signal;HPM_P1;HPM_P2
2022/05/11 00:01:01;;;;;;;;;5.00;5.00;;;;;;;;5039288;28;8879;-65
2022/05/11 00:03:27;;;;;;;;;5.40;5.40;;;;;;;;5039206;28;8787;-65
2022/05/11 00:05:54;;;;;;;;;8.00;8.00;;;;;;;;5039271;28;8761;-65
2022/05/11 00:08:21;;;;;;;;;9.80;9.80;;;;;;;;5038871;28;8737;-65
2022/05/11 00:10:48;;;;;;;;;12.00;9.60;;;;;;;;5039039;28;8780;-65
2022/05/11 00:13:15;;;;;;;;;10.80;9.40;;;;;;;;5039726;28;8766;-65
2022/05/11 00:15:41;;;;;;;;;11.20;11.00;;;;;;;;5038900;28;8754;-65
2022/05/11 00:18:10;;;;;;;;;10.00;10.00;;;;;;;;5038845;28;9453;-65
2022/05/11 00:20:37;;;;;;;;;7.00;5.60;;;;;;;;5038345;28;8804;-65
2022/05/11 00:23:04;;;;;;;;;10.40;9.40;;;;;;;;5021402;28;9591;-65
2022/05/11 00:25:31;;;;;;;;;8.80;8.80;;;;;;;;5020810;28;8753;-65
2022/05/11 00:27:58;;;;;;;;;9.60;8.00;;;;;;;;5039969;28;8770;-65
2022/05/11 00:30:26;;;;;;;;;10.00;9.80;;;;;;;;5058394;28;8763;-65
2022/05/11 00:32:53;;;;;;;;;8.80;8.80;;;;;;;;5058654;28;8774;-65
2022/05/11 00:35:20;;;;;;;;;6.00;6.00;;;;;;;;5039694;28;9450;-64
2022/05/11 00:37:46;;;;;;;;;7.60;6.60;;;;;;;;5057529;28;8762;-65
2022/05/11 00:40:13;;;;;;;;;8.20;6.80;;;;;;;;5044807;28;9000;-65
2022/05/11 00:42:40;;;;;;;;;7.20;7.20;;;;;;;;5018839;28;8767;-66
2022/05/11 00:45:07;;;;;;;;;6.40;6.00;;;;;;;;5017416;28;8781;-65
2022/05/11 00:47:36;;;;;;;;;3.80;3.80;;;;;;;;5016759;28;8873;-65
2022/05/11 00:50:08;;;;;;;;;4.20;4.20;;;;;;;;5031969;28;8763;-65
2022/05/11 00:52:44;;;;;;;;;5.60;4.80;;;;;;;;5032174;28;8778;-65
2022/05/11 00:55:15;;;;;;;;;4.20;3.00;;;;;;;;5005189;28;8785;-65
2022/05/11 00:57:58;;;;;;;;;4.20;4.20;;;;;;;;4980263;28;8757;-64
2022/05/11 01:00:25;;;;;;;;;4.40;4.40;;;;;;;;4980498;28;8823;-63
2022/05/11 01:02:53;;;;;;;;;6.20;4.80;;;;;;;;4997699;28;9457;-65
2022/05/11 01:05:19;;;;;;;;;5.40;5.40;;;;;;;;4997795;28;8781;-63
2022/05/11 01:07:46;;;;;;;;;2.40;2.40;;;;;;;;4997700;28;8777;-65
2022/05/11 01:10:13;;;;;;;;;4.00;4.00;;;;;;;;5010806;28;9360;-67
2022/05/11 01:12:40;;;;;;;;;5.00;3.60;;;;;;;;5015176;28;8775;-66
2022/05/11 01:15:07;;;;;;;;;3.00;3.00;;;;;;;;5017857;28;8763;-65
2022/05/11 01:17:34;;;;;;;;;5.00;5.00;;;;;;;;5032215;28;8845;-65
2022/05/11 01:20:01;;;;;;;;;6.00;4.60;;;;;;;;5017588;28;8771;-64
2022/05/11 01:22:27;;;;;;;;;4.00;4.00;;;;;;;;5015625;28;8763;-64
2022/05/11 01:24:54;;;;;;;;;3.40;3.40;;;;;;;;5008313;28;8769;-64
2022/05/11 01:27:21;;;;;;;;;3.80;3.80;;;;;;;;4997351;28;8769;-65
2022/05/11 01:29:48;;;;;;;;;3.60;2.80;;;;;;;;4998197;28;8772;-64
2022/05/11 01:32:15;;;;;;;;;4.20;3.80;;;;;;;;4997842;28;8791;-64
2022/05/11 01:34:41;;;;;;;;;3.40;3.40;;;;;;;;4996256;28;8734;-65
2022/05/11 01:37:10;;;;;;;;;3.80;3.40;;;;;;;;4997499;28;8765;-64
2022/05/11 01:39:37;;;;;;;;;1.00;1.00;;;;;;;;5004160;28;8821;-63
2022/05/11 01:42:04;;;;;;;;;4.80;3.20;;;;;;;;5014740;28;8866;-64
2022/05/11 01:44:31;;;;;;;;;2.20;2.20;;;;;;;;5016954;28;8801;-63
2022/05/11 01:46:59;;;;;;;;;3.40;3.40;;;;;;;;5032484;28;8767;-66
2022/05/11 01:49:27;;;;;;;;;2.80;2.80;;;;;;;;5008417;28;8763;-64
2022/05/11 01:51:54;;;;;;;;;4.00;4.00;;;;;;;;5017187;28;8755;-63
2022/05/11 01:54:21;;;;;;;;;6.80;6.00;;;;;;;;5012602;28;9430;-68
2022/05/11 01:56:47;;;;;;;;;5.00;5.00;;;;;;;;4980622;28;9309;-64
2022/05/11 01:59:14;;;;;;;;;4.00;4.00;;;;;;;;4997077;28;8799;-69
2022/05/11 02:01:41;;;;;;;;;6.00;4.60;;;;;;;;4996975;28;8753;-66
2022/05/11 02:07:49;;;;;;;;;4.80;4.80;;;;;;;;4997947;28;8759;-64
2022/05/11 02:09:42;;;;;;;;;1.20;1.20;;;;;;;;5003006;28;8770;-65
2022/05/11 02:12:11;;;;;;;;;4.20;4.00;;;;;;;;5036416;28;8784;-64
2022/05/11 02:14:39;;;;;;;;;3.00;3.00;;;;;;;;5018608;28;9080;-65
2022/05/11 02:17:06;;;;;;;;;3.00;3.00;;;;;;;;5036145;28;8773;-65
2022/05/11 02:19:33;;;;;;;;;3.40;3.40;;;;;;;;5035906;28;8777;-65
2022/05/11 02:22:00;;;;;;;;;4.00;4.00;;;;;;;;5036879;28;9426;-64
2022/05/11 02:24:26;;;;;;;;;3.00;3.00;;;;;;;;5033354;28;8871;-64
2022/05/11 02:26:53;;;;;;;;;6.20;4.60;;;;;;;;5018627;28;8746;-64
2022/05/11 02:29:21;;;;;;;;;4.80;4.00;;;;;;;;5017385;28;8780;-63
2022/05/11 02:31:49;;;;;;;;;7.80;7.80;;;;;;;;5018320;28;8879;-64
2022/05/11 02:35:12;;;;;;;;;5.40;5.40;;;;;;;;5035958;28;8773;-64
2022/05/11 02:37:02;;;;;;;;;7.40;6.00;;;;;;;;5035809;28;8772;-64
2022/05/11 02:39:29;;;;;;;;;5.40;5.40;;;;;;;;5035404;28;8856;-64
2022/05/11 02:41:56;;;;;;;;;6.00;6.00;;;;;;;;5035491;28;8839;-64
2022/05/11 02:44:22;;;;;;;;;8.60;5.40;;;;;;;;5035777;28;8789;-63
2022/05/11 02:46:49;;;;;;;;;5.20;5.20;;;;;;;;5034130;28;8793;-64
2022/05/11 02:49:16;;;;;;;;;5.60;5.60;;;;;;;;5029562;28;8787;-65
2022/05/11 02:51:43;;;;;;;;;5.00;4.00;;;;;;;;5015461;28;8739;-64
2022/05/11 02:54:10;;;;;;;;;6.40;6.40;;;;;;;;5013285;28;8798;-65
2022/05/11 02:56:37;;;;;;;;;6.00;6.00;;;;;;;;5014621;28;8758;-64
2022/05/11 02:59:03;;;;;;;;;6.40;6.40;;;;;;;;5014090;28;9939;-64
2022/05/11 03:01:30;;;;;;;;;6.40;6.40;;;;;;;;5015953;28;8747;-64
2022/05/11 03:03:57;;;;;;;;;5.00;4.20;;;;;;;;5016467;28;8828;-63
2022/05/11 03:06:24;;;;;;;;;5.60;5.40;;;;;;;;5015802;28;8754;-71
2022/05/11 03:08:50;;;;;;;;;5.00;5.00;;;;;;;;5016632;28;8849;-66
2022/05/11 03:11:17;;;;;;;;;4.80;4.00;;;;;;;;5016471;28;8723;-64
2022/05/11 03:13:44;;;;;;;;;5.00;5.00;;;;;;;;5031656;28;8761;-63
2022/05/11 03:16:11;;;;;;;;;7.20;7.20;;;;;;;;5015716;28;8743;-62
2022/05/11 03:18:37;;;;;;;;;5.00;5.00;;;;;;;;5022141;28;8804;-62
2022/05/11 03:21:04;;;;;;;;;6.80;5.80;;;;;;;;5019540;28;8799;-65
2022/05/11 03:23:31;;;;;;;;;5.40;5.40;;;;;;;;5019679;28;8844;-61
2022/05/11 03:25:57;;;;;;;;;6.20;6.20;;;;;;;;5019515;28;8797;-64
2022/05/11 03:28:24;;;;;;;;;6.60;6.60;;;;;;;;5020242;28;8747;-64
2022/05/11 03:30:51;;;;;;;;;8.40;7.40;;;;;;;;5019759;28;8767;-64
2022/05/11 03:36:03;;;;;;;;;5.60;5.60;;;;;;;;5017867;28;8968;-64
2022/05/11 03:38:30;;;;;;;;;6.40;6.40;;;;;;;;5019084;28;8770;-63
2022/05/11 03:40:58;;;;;;;;;7.40;7.00;;;;;;;;5019176;28;8786;-65
2022/05/11 03:43:24;;;;;;;;;5.20;5.20;;;;;;;;5019523;28;8844;-63
2022/05/11 03:45:51;;;;;;;;;5.20;5.20;;;;;;;;5034977;28;8763;-65
2022/05/11 03:48:18;;;;;;;;;6.60;5.60;;;;;;;;5025441;28;8821;-62
2022/05/11 03:50:45;;;;;;;;;8.20;6.00;;;;;;;;5039971;28;8778;-64
2022/05/11 03:53:11;;;;;;;;;4.80;3.00;;;;;;;;5038413;28;8851;-66
2022/05/11 03:55:39;;;;;;;;;5.40;3.80;;;;;;;;5038444;28;8792;-64
2022/05/11 03:58:05;;;;;;;;;3.60;2.60;;;;;;;;5039086;28;9375;-64
2022/05/11 04:00:32;;;;;;;;;5.80;5.80;;;;;;;;5038450;28;8745;-64
2022/05/11 04:02:59;;;;;;;;;5.80;5.80;;;;;;;;5038873;28;8974;-64
2022/05/11 04:05:26;;;;;;;;;8.00;6.40;;;;;;;;5038555;28;8757;-65
2022/05/11 04:07:53;;;;;;;;;5.40;5.40;;;;;;;;5038760;28;8812;-66
2022/05/11 04:10:19;;;;;;;;;6.60;5.20;;;;;;;;5038828;28;8765;-64
2022/05/11 04:12:46;;;;;;;;;5.80;5.80;;;;;;;;5038846;28;8753;-64
2022/05/11 04:15:13;;;;;;;;;2.80;2.20;;;;;;;;5038269;28;8753;-64
2022/05/11 04:17:40;;;;;;;;;6.00;6.00;;;;;;;;5038362;28;8769;-64
2022/05/11 04:20:07;;;;;;;;;4.20;4.20;;;;;;;;5020454;28;8781;-65
2022/05/11 04:22:34;;;;;;;;;4.80;4.80;;;;;;;;5037225;28;8765;-64
2022/05/11 04:25:01;;;;;;;;;3.80;3.80;;;;;;;;5038397;28;8804;-65
2022/05/11 04:27:29;;;;;;;;;4.40;4.40;;;;;;;;5002969;28;8750;-64
2022/05/11 04:29:56;;;;;;;;;5.00;5.00;;;;;;;;5037423;28;8828;-65
2022/05/11 04:32:22;;;;;;;;;6.20;6.20;;;;;;;;5034393;28;8800;-64
2022/05/11 04:34:50;;;;;;;;;4.00;3.00;;;;;;;;5017776;28;8770;-69
2022/05/11 04:37:17;;;;;;;;;3.00;3.00;;;;;;;;5036884;28;8781;-68
2022/05/11 04:39:43;;;;;;;;;5.60;5.60;;;;;;;;5036435;28;8899;-68
2022/05/11 04:42:11;;;;;;;;;5.00;5.00;;;;;;;;5036495;28;8737;-68
2022/05/11 04:44:38;;;;;;;;;5.00;5.00;;;;;;;;5034320;28;9442;-63
2022/05/11 04:47:11;;;;;;;;;3.80;3.80;;;;;;;;5036073;28;8773;-63
2022/05/11 04:49:38;;;;;;;;;5.40;5.40;;;;;;;;5035060;28;14902;-65
2022/05/11 04:52:09;;;;;;;;;4.20;4.20;;;;;;;;5036522;28;8753;-64
2022/05/11 04:54:39;;;;;;;;;4.40;4.40;;;;;;;;5034172;28;8781;-66
2022/05/11 04:57:05;;;;;;;;;3.60;3.60;;;;;;;;5037087;28;8896;-64
2022/05/11 04:59:33;;;;;;;;;6.20;5.00;;;;;;;;5019298;28;9395;-65
2022/05/11 05:02:00;;;;;;;;;4.60;4.60;;;;;;;;5036862;28;8785;-64
2022/05/11 05:04:30;;;;;;;;;5.60;5.00;;;;;;;;5018335;28;8789;-62
2022/05/11 05:06:56;;;;;;;;;5.60;4.00;;;;;;;;5037284;28;8862;-63
2022/05/11 05:09:23;;;;;;;;;3.20;3.20;;;;;;;;5035670;28;8791;-63
2022/05/11 05:11:50;;;;;;;;;5.00;4.00;;;;;;;;5036135;28;8760;-63
2022/05/11 05:14:17;;;;;;;;;4.60;4.00;;;;;;;;5034049;28;8998;-63
2022/05/11 05:16:43;;;;;;;;;7.00;4.20;;;;;;;;5034814;28;8746;-63
2022/05/11 05:19:11;;;;;;;;;5.20;5.20;;;;;;;;5035318;28;8761;-63
2022/05/11 05:21:38;;;;;;;;;4.00;4.00;;;;;;;;5035868;28;8965;-64
2022/05/11 05:24:04;;;;;;;;;3.00;3.00;;;;;;;;5036253;28;8789;-65
2022/05/11 05:26:31;;;;;;;;;4.80;4.00;;;;;;;;5036949;28;8781;-63
2022/05/11 05:31:43;;;;;;;;;1.20;1.00;;;;;;;;5036468;28;8742;-61
2022/05/11 05:34:09;;;;;;;;;7.20;4.20;;;;;;;;5038181;28;8800;-63
2022/05/11 05:36:36;;;;;;;;;5.00;3.60;;;;;;;;5038273;28;8864;-63
2022/05/11 05:39:03;;;;;;;;;6.20;5.00;;;;;;;;5036969;28;8765;-63
2022/05/11 05:41:30;;;;;;;;;6.40;3.80;;;;;;;;5036646;28;8805;-63
2022/05/11 05:43:57;;;;;;;;;3.00;3.00;;;;;;;;5035603;28;8789;-62
2022/05/11 05:46:24;;;;;;;;;4.40;4.40;;;;;;;;5036179;28;8761;-62
2022/05/11 05:48:51;;;;;;;;;4.20;4.20;;;;;;;;5014995;28;9431;-61
2022/05/11 05:51:18;;;;;;;;;4.00;4.00;;;;;;;;5015608;28;8849;-61
2022/05/11 05:53:45;;;;;;;;;4.00;3.60;;;;;;;;5016755;28;8771;-63
2022/05/11 05:56:12;;;;;;;;;3.00;1.60;;;;;;;;5016374;28;8897;-62
2022/05/11 05:58:40;;;;;;;;;2.80;2.80;;;;;;;;5014632;28;8783;-63
2022/05/11 06:01:07;;;;;;;;;2.60;2.60;;;;;;;;5017439;28;9515;-62
2022/05/11 06:03:34;;;;;;;;;4.00;4.00;;;;;;;;5015173;28;8791;-62
2022/05/11 06:06:00;;;;;;;;;5.00;4.00;;;;;;;;5016592;28;8868;-63
2022/05/11 06:08:29;;;;;;;;;4.00;4.00;;;;;;;;5016079;28;8771;-60
2022/05/11 06:10:57;;;;;;;;;3.60;3.20;;;;;;;;5009369;28;8871;-60
2022/05/11 06:13:24;;;;;;;;;4.20;4.20;;;;;;;;5015465;28;8751;-60
2022/05/11 06:15:52;;;;;;;;;4.60;4.60;;;;;;;;5016317;28;8766;-60
2022/05/11 06:18:19;;;;;;;;;3.00;3.00;;;;;;;;5017105;28;8782;-59
2022/05/11 06:20:46;;;;;;;;;4.00;4.00;;;;;;;;5015395;28;8774;-60
2022/05/11 06:23:13;;;;;;;;;1.00;1.00;;;;;;;;5016552;28;8837;-60
2022/05/11 06:25:40;;;;;;;;;2.00;2.00;;;;;;;;5014541;28;9409;-60
2022/05/11 06:28:07;;;;;;;;;3.20;2.20;;;;;;;;5031962;28;8759;-60
2022/05/11 06:30:33;;;;;;;;;2.40;2.40;;;;;;;;5016327;28;9405;-59
2022/05/11 06:33:03;;;;;;;;;3.20;2.60;;;;;;;;5015353;28;8763;-60
2022/05/11 06:35:30;;;;;;;;;2.00;2.00;;;;;;;;5007559;28;8849;-60
2022/05/11 06:37:57;;;;;;;;;4.80;4.00;;;;;;;;5013298;28;8806;-60
2022/05/11 06:40:24;;;;;;;;;3.00;3.00;;;;;;;;5015994;28;8841;-62
2022/05/11 06:42:52;;;;;;;;;2.60;2.60;;;;;;;;5015027;28;8789;-62
2022/05/11 06:45:19;;;;;;;;;3.40;3.40;;;;;;;;5016485;28;8762;-61
2022/05/11 06:47:46;;;;;;;;;3.00;3.00;;;;;;;;5031778;28;8743;-61
2022/05/11 06:50:13;;;;;;;;;1.40;1.40;;;;;;;;5036460;28;8773;-62
2022/05/11 06:52:40;;;;;;;;;4.80;3.00;;;;;;;;5036062;28;8849;-62
2022/05/11 07:00:37;;;;;;;;;3.00;2.00;;;;;;;;5039633;28;8769;-62
2022/05/11 07:03:05;;;;;;;;;1.20;1.20;;;;;;;;5039397;28;8753;-63
2022/05/11 07:05:32;;;;;;;;;2.80;2.80;;;;;;;;5039341;28;8781;-62
2022/05/11 07:07:59;;;;;;;;;3.20;2.60;;;;;;;;5039734;28;8785;-62
2022/05/11 07:10:26;;;;;;;;;4.00;2.60;;;;;;;;5039777;28;8738;-62
2022/05/11 07:12:52;;;;;;;;;2.00;2.00;;;;;;;;5023122;28;8760;-63
2022/05/11 07:15:20;;;;;;;;;1.20;1.20;;;;;;;;5039479;28;8861;-61
2022/05/11 07:17:50;;;;;;;;;1.00;1.00;;;;;;;;5039217;28;8741;-63
2022/05/11 07:20:18;;;;;;;;;4.00;4.00;;;;;;;;5040350;28;8773;-62
2022/05/11 07:22:45;;;;;;;;;4.00;3.60;;;;;;;;5039993;28;9489;-62
2022/05/11 07:25:13;;;;;;;;;3.00;3.00;;;;;;;;5040351;28;8750;-63
2022/05/11 07:27:39;;;;;;;;;2.00;2.00;;;;;;;;5039771;28;8741;-63
2022/05/11 07:30:08;;;;;;;;;2.60;2.00;;;;;;;;5022478;28;9039;-62
2022/05/11 07:32:34;;;;;;;;;3.60;3.60;;;;;;;;5039715;28;8856;-62
2022/05/11 07:35:01;;;;;;;;;4.20;3.20;;;;;;;;5039530;28;8807;-63
2022/05/11 07:37:28;;;;;;;;;4.40;2.00;;;;;;;;5039439;28;8765;-62
2022/05/11 07:39:56;;;;;;;;;0.00;0.00;;;;;;;;5040052;28;8709;-62
2022/05/11 07:42:24;;;;;;;;;2.00;2.00;;;;;;;;5038108;28;8776;-62
2022/05/11 07:44:50;;;;;;;;;4.00;3.00;;;;;;;;5038414;28;8749;-63
2022/05/11 07:47:17;;;;;;;;;5.00;3.20;;;;;;;;5039496;28;8927;-62
2022/05/11 07:49:44;;;;;;;;;4.80;3.40;;;;;;;;5018243;28;8763;-62
2022/05/11 07:52:11;;;;;;;;;2.60;2.60;;;;;;;;5020512;28;8739;-63
2022/05/11 07:54:40;;;;;;;;;2.40;2.20;;;;;;;;5012413;28;9651;-62
2022/05/11 08:00:00;;;;;;;;;3.00;3.00;;;;;;;;4991772;28;8825;-62
2022/05/11 08:02:31;;;;;;;;;5.80;4.00;;;;;;;;4999809;28;8764;-62
2022/05/11 08:04:59;;;;;;;;;3.00;3.00;;;;;;;;4999453;28;8773;-62
2022/05/11 08:07:30;;;;;;;;;3.00;3.00;;;;;;;;4998318;28;8734;-62
2022/05/11 08:10:00;;;;;;;;;6.60;3.20;;;;;;;;5008667;28;8742;-62
2022/05/11 08:12:27;;;;;;;;;2.60;2.60;;;;;;;;5018666;28;8743;-62
2022/05/11 08:14:54;;;;;;;;;4.60;4.60;;;;;;;;5019342;28;8730;-63
2022/05/11 08:17:25;;;;;;;;;7.60;7.60;;;;;;;;5017883;28;8759;-61
2022/05/11 08:19:51;;;;;;;;;6.00;5.80;;;;;;;;5018619;28;8759;-63
2022/05/11 08:22:18;;;;;;;;;8.20;8.20;;;;;;;;5018133;28;8755;-62
2022/05/11 08:24:45;;;;;;;;;9.80;8.80;;;;;;;;5009687;28;8760;-62
2022/05/11 08:27:12;;;;;;;;;8.20;8.00;;;;;;;;4999364;28;8767;-63
2022/05/11 08:35:08;;;;;;;;;10.80;10.60;;;;;;;;4998303;28;8769;-62
2022/05/11 08:37:35;;;;;;;;;6.40;6.40;;;;;;;;4997326;28;8758;-62
2022/05/11 08:40:02;;;;;;;;;13.00;8.00;;;;;;;;5010038;28;8751;-62
2022/05/11 08:42:30;;;;;;;;;9.00;7.80;;;;;;;;5018941;28;8755;-62
2022/05/11 08:45:02;;;;;;;;;6.40;6.40;;;;;;;;5018877;28;8780;-63
2022/05/11 08:47:34;;;;;;;;;8.40;7.80;;;;;;;;5018638;28;8844;-62
2022/05/11 08:50:16;;;;;;;;;7.00;5.80;;;;;;;;5036753;28;8781;-63
2022/05/11 08:52:50;;;;;;;;;3.80;3.80;;;;;;;;5038523;28;8877;-62
2022/05/11 08:55:35;;;;;;;;;4.80;3.40;;;;;;;;5021613;28;9414;-63
2022/05/11 08:58:06;;;;;;;;;5.40;3.00;;;;;;;;5038155;28;9414;-63
2022/05/11 09:00:32;;;;;;;;;4.60;2.00;;;;;;;;5020603;28;8753;-63
2022/05/11 09:03:00;;;;;;;;;1.60;1.60;;;;;;;;5038360;28;8780;-63
2022/05/11 09:05:28;;;;;;;;;1.80;1.80;;;;;;;;5020747;28;8789;-62
2022/05/11 09:07:55;;;;;;;;;3.00;2.00;;;;;;;;5020425;28;8780;-63
2022/05/11 09:10:32;;;;;;;;;1.80;1.80;;;;;;;;5038420;28;8742;-62
2022/05/11 09:13:00;;;;;;;;;2.00;0.60;;;;;;;;5037330;28;8746;-63
2022/05/11 09:15:44;;;;;;;;;2.80;1.00;;;;;;;;5037897;28;8881;-63
2022/05/11 09:18:11;;;;;;;;;0.20;0.20;;;;;;;;5037420;28;8745;-63
2022/05/11 09:20:38;;;;;;;;;2.20;1.00;;;;;;;;5037736;28;8773;-63
2022/05/11 09:23:07;;;;;;;;;2.60;0.80;;;;;;;;5037744;28;8789;-63
2022/05/11 09:25:38;;;;;;;;;3.00;1.60;;;;;;;;5020114;28;8734;-62
2022/05/11 09:28:24;;;;;;;;;2.40;2.40;;;;;;;;5038424;28;8737;-63
2022/05/11 09:31:02;;;;;;;;;4.20;2.40;;;;;;;;5038161;28;8742;-63
2022/05/11 09:33:38;;;;;;;;;2.80;2.80;;;;;;;;5037246;28;8757;-63
2022/05/11 09:36:05;;;;;;;;;3.00;3.00;;;;;;;;5019454;28;8824;-63
2022/05/11 09:38:42;;;;;;;;;2.40;2.40;;;;;;;;5036769;28;8785;-62
2022/05/11 09:41:11;;;;;;;;;4.40;4.40;;;;;;;;5037446;28;8793;-63
2022/05/11 09:43:42;;;;;;;;;4.00;4.00;;;;;;;;5019375;28;9422;-63
2022/05/11 09:46:35;;;;;;;;;4.60;3.00;;;;;;;;5038363;28;8785;-63
2022/05/11 09:49:04;;;;;;;;;5.20;5.00;;;;;;;;5034817;28;8794;-63
2022/05/11 09:51:31;;;;;;;;;4.20;4.00;;;;;;;;5037420;28;8781;-63
2022/05/11 09:54:17;;;;;;;;;5.80;5.80;;;;;;;;5019729;28;8888;-63
2022/05/11 09:56:54;;;;;;;;;4.80;4.80;;;;;;;;5037446;28;9472;-63
2022/05/11 09:59:25;;;;;;;;;5.00;5.00;;;;;;;;5037228;28;8919;-63
2022/05/11 10:02:15;;;;;;;;;4.00;4.00;;;;;;;;5036165;28;8769;-63
2022/05/11 10:04:47;;;;;;;;;3.00;3.00;;;;;;;;5027065;28;8788;-63
2022/05/11 10:07:14;;;;;;;;;4.00;4.00;;;;;;;;5037846;28;8738;-63
2022/05/11 10:09:42;;;;;;;;;5.00;4.20;;;;;;;;5019377;28;8766;-63
2022/05/11 10:12:11;;;;;;;;;6.00;6.00;;;;;;;;5037168;28;8812;-63
2022/05/11 10:23:02;;;;;;;;;8.60;8.00;;;;;;;;5028277;28;8777;-63
2022/05/11 10:25:33;;;;;;;;;6.60;6.60;;;;;;;;5036758;28;8765;-62
2022/05/11 10:28:17;;;;;;;;;0.00;0.00;;;;;;;;5037866;28;8741;-63
2022/05/11 10:30:44;;;;;;;;;7.20;7.20;;;;;;;;5016563;28;8747;-63
2022/05/11 10:33:29;;;;;;;;;6.80;6.40;;;;;;;;5021802;28;8846;-63
2022/05/11 10:36:02;;;;;;;;;7.60;7.60;;;;;;;;5037026;28;8821;-63
2022/05/11 10:38:37;;;;;;;;;6.00;6.00;;;;;;;;5017086;28;8747;-63
2022/05/11 10:41:04;;;;;;;;;8.00;8.00;;;;;;;;5017074;28;8914;-63
2022/05/11 10:43:49;;;;;;;;;9.80;7.00;;;;;;;;5015539;28;8727;-63
2022/05/11 10:46:22;;;;;;;;;5.20;5.20;;;;;;;;5018146;28;8828;-63
2022/05/11 10:48:51;;;;;;;;;7.00;7.00;;;;;;;;5017073;28;8782;-63
2022/05/11 10:51:21;;;;;;;;;7.40;7.00;;;;;;;;5016711;28;8937;-62
2022/05/11 10:53:57;;;;;;;;;10.00;7.20;;;;;;;;5015640;28;9420;-63
2022/05/11 10:56:31;;;;;;;;;8.60;6.40;;;;;;;;5017109;28;8794;-62
2022/05/11 10:59:00;;;;;;;;;7.60;7.60;;;;;;;;5015908;28;8783;-63
2022/05/11 11:01:30;;;;;;;;;8.40;7.80;;;;;;;;5035727;28;8775;-62
2022/05/11 11:04:03;;;;;;;;;8.00;7.80;;;;;;;;5016573;28;8762;-63
2022/05/11 11:09:30;;;;;;;;;9.00;8.00;;;;;;;;5011300;28;8770;-63
2022/05/11 11:12:00;;;;;;;;;8.40;7.00;;;;;;;;4997072;28;9439;-63
2022/05/11 11:14:37;;;;;;;;;12.60;10.00;;;;;;;;4995155;28;8774;-62
2022/05/11 11:17:08;;;;;;;;;13.20;11.60;;;;;;;;4999597;28;8796;-62
2022/05/11 11:19:35;;;;;;;;;36.75;32.50;;;;;;;;4998766;28;9482;-62
2022/05/11 11:22:03;;;;;;;;;14.75;13.75;;;;;;;;4999552;28;8787;-62
2022/05/11 11:24:30;;;;;;;;;10.60;10.40;;;;;;;;5004651;28;8764;-63
2022/05/11 11:26:58;;;;;;;;;12.40;11.40;;;;;;;;5036477;28;8773;-63
2022/05/11 11:29:24;;;;;;;;;62.25;48.00;;;;;;;;5035833;28;8768;-63
2022/05/11 11:32:00;;;;;;;;;23.25;23.25;;;;;;;;5035925;28;8738;-63
2022/05/11 11:34:29;;;;;;;;;36.50;31.00;;;;;;;;5035764;28;8763;-63
2022/05/11 11:36:56;;;;;;;;;36.75;33.00;;;;;;;;5036554;28;8867;-64
2022/05/11 11:40:03;;;;;;;;;37.75;30.75;;;;;;;;5035803;28;8912;-63
2022/05/11 11:42:36;;;;;;;;;41.50;33.75;;;;;;;;4976334;28;9535;-63
2022/05/11 11:45:07;;;;;;;;;44.75;36.50;;;;;;;;4953057;28;8790;-63
2022/05/11 11:47:34;;;;;;;;;45.00;36.25;;;;;;;;5001881;28;8798;-63
2022/05/11 11:50:01;;;;;;;;;67.40;54.20;;;;;;;;5018434;28;8802;-63
2022/05/11 11:52:35;;;;;;;;;43.75;35.50;;;;;;;;5019199;28;8767;-63
2022/05/11 11:55:02;;;;;;;;;13.00;11.80;;;;;;;;5019818;28;8779;-64
2022/05/11 11:57:32;;;;;;;;;8.00;8.00;;;;;;;;5005377;28;8781;-63
2022/05/11 12:00:00;;;;;;;;;6.60;6.20;;;;;;;;5019901;28;8867;-63
2022/05/11 12:02:42;;;;;;;;;5.80;5.80;;;;;;;;5019602;28;8907;-63
2022/05/11 12:05:13;;;;;;;;;9.20;4.60;;;;;;;;5039679;28;8842;-64
2022/05/11 12:16:20;;;;;;;;;9.60;6.80;;;;;;;;4978797;28;8876;-64
2022/05/11 12:18:47;;;;;;;;;6.60;5.20;;;;;;;;5026690;28;8770;-63
2022/05/11 12:21:31;;;;;;;;;4.80;4.80;;;;;;;;5039318;28;8791;-64
2022/05/11 12:23:59;;;;;;;;;8.00;6.40;;;;;;;;5020334;28;8887;-63
2022/05/11 12:26:26;;;;;;;;;7.60;7.60;;;;;;;;5037484;28;8777;-63
2022/05/11 12:29:54;;;;;;;;;7.40;7.40;;;;;;;;5038191;28;8778;-63
2022/05/11 12:31:43;;;;;;;;;9.20;7.60;;;;;;;;5024304;28;8769;-64
2022/05/11 12:34:09;;;;;;;;;13.40;12.20;;;;;;;;5037955;28;8765;-63
2022/05/11 12:36:37;;;;;;;;;13.40;12.60;;;;;;;;5038571;28;9471;-64
2022/05/11 12:39:04;;;;;;;;;10.00;9.80;;;;;;;;5038657;28;8777;-64
2022/05/11 12:41:31;;;;;;;;;11.20;10.20;;;;;;;;5038326;28;8966;-64
2022/05/11 12:44:04;;;;;;;;;11.80;10.40;;;;;;;;5038686;28;8773;-63
2022/05/11 12:46:31;;;;;;;;;12.40;9.80;;;;;;;;5020566;28;8757;-63
2022/05/11 12:49:01;;;;;;;;;10.20;10.00;;;;;;;;5038936;28;9450;-64
2022/05/11 12:51:32;;;;;;;;;7.20;7.20;;;;;;;;5037529;28;8827;-63
2022/05/11 12:53:59;;;;;;;;;8.40;8.00;;;;;;;;5037976;28;8785;-64
2022/05/11 12:56:27;;;;;;;;;8.80;8.80;;;;;;;;5038195;28;8781;-63
2022/05/11 12:58:58;;;;;;;;;11.00;7.60;;;;;;;;5038491;28;8761;-63
2022/05/11 13:01:28;;;;;;;;;11.40;7.00;;;;;;;;5036878;28;8777;-61
2022/05/11 13:04:01;;;;;;;;;8.20;6.80;;;;;;;;5038849;28;8756;-64
2022/05/11 13:06:38;;;;;;;;;8.00;6.80;;;;;;;;5038277;28;8769;-63
2022/05/11 13:09:18;;;;;;;;;8.00;8.00;;;;;;;;5038290;28;8797;-64
2022/05/11 13:11:44;;;;;;;;;8.20;6.80;;;;;;;;5038237;28;8888;-63
2022/05/11 13:14:24;;;;;;;;;8.80;7.60;;;;;;;;5038161;28;8858;-63
2022/05/11 13:16:53;;;;;;;;;7.80;7.60;;;;;;;;5038415;28;8781;-63
2022/05/11 13:19:27;;;;;;;;;10.60;8.80;;;;;;;;5001758;28;8795;-63
2022/05/11 13:21:54;;;;;;;;;11.00;10.00;;;;;;;;5021169;28;8890;-63
2022/05/11 13:24:36;;;;;;;;;12.00;12.00;;;;;;;;5037742;28;8788;-63
2022/05/11 13:27:13;;;;;;;;;12.40;10.80;;;;;;;;5018330;28;8781;-63
2022/05/11 13:29:39;;;;;;;;;9.60;8.00;;;;;;;;5016989;28;8779;-63
2022/05/11 13:32:10;;;;;;;;;11.00;10.00;;;;;;;;5031345;28;8763;-63
2022/05/11 13:34:39;;;;;;;;;12.60;11.40;;;;;;;;5016448;28;8763;-63
2022/05/11 13:37:22;;;;;;;;;19.80;18.80;;;;;;;;5017826;28;8788;-63
2022/05/11 13:39:49;;;;;;;;;24.80;20.60;;;;;;;;5024738;28;8773;-63
2022/05/11 13:42:17;;;;;;;;;22.00;17.80;;;;;;;;4980864;28;8801;-63
2022/05/11 13:44:48;;;;;;;;;23.20;19.60;;;;;;;;4981196;28;8773;-63
2022/05/11 13:50:28;;;;;;;;;16.60;13.00;;;;;;;;5017723;28;9471;-63
2022/05/11 13:52:56;;;;;;;;;6.20;6.20;;;;;;;;5018078;28;8776;-63
2022/05/11 13:55:39;;;;;;;;;6.40;5.40;;;;;;;;5030438;28;8777;-63
2022/05/11 13:58:25;;;;;;;;;7.00;7.00;;;;;;;;5038435;28;8722;-63
2022/05/11 14:00:54;;;;;;;;;8.60;8.00;;;;;;;;5036814;28;8762;-63
2022/05/11 14:03:21;;;;;;;;;9.20;7.60;;;;;;;;5037096;28;8786;-62
2022/05/11 14:05:47;;;;;;;;;8.40;8.40;;;;;;;;5036264;28;8945;-63
2022/05/11 14:08:14;;;;;;;;;10.40;8.80;;;;;;;;5037479;28;8887;-63
2022/05/11 14:10:41;;;;;;;;;7.40;7.20;;;;;;;;5036639;28;8780;-63
2022/05/11 14:13:08;;;;;;;;;10.20;9.20;;;;;;;;5037672;28;8761;-63
2022/05/11 14:15:34;;;;;;;;;9.80;7.40;;;;;;;;5037036;28;8780;-63
2022/05/11 14:18:02;;;;;;;;;10.20;9.00;;;;;;;;5037026;28;8862;-63
2022/05/11 14:20:29;;;;;;;;;12.00;11.00;;;;;;;;5036487;28;8777;-63
2022/05/11 14:22:59;;;;;;;;;13.20;12.60;;;;;;;;5036747;28;8769;-63
2022/05/11 14:25:26;;;;;;;;;10.60;10.60;;;;;;;;5036345;28;8837;-62
2022/05/11 14:27:53;;;;;;;;;11.80;10.40;;;;;;;;5037190;28;8750;-62
2022/05/11 14:30:20;;;;;;;;;10.60;10.20;;;;;;;;5036374;28;8844;-63
2022/05/11 14:32:47;;;;;;;;;10.00;9.00;;;;;;;;5036665;28;8762;-63
2022/05/11 14:35:15;;;;;;;;;7.20;7.20;;;;;;;;5036615;28;8788;-63
2022/05/11 14:37:41;;;;;;;;;10.40;7.80;;;;;;;;5018952;28;8888;-63
2022/05/11 14:40:09;;;;;;;;;9.00;9.00;;;;;;;;5037133;28;8738;-63
2022/05/11 14:42:35;;;;;;;;;10.60;7.40;;;;;;;;5036415;28;8800;-63
2022/05/11 14:45:02;;;;;;;;;7.60;7.60;;;;;;;;5036922;28;8749;-63
2022/05/11 14:47:29;;;;;;;;;5.80;5.40;;;;;;;;5036370;28;8831;-62
2022/05/11 14:49:56;;;;;;;;;8.20;7.80;;;;;;;;5015539;28;8788;-63
2022/05/11 14:52:23;;;;;;;;;7.40;7.20;;;;;;;;5015917;28;8937;-63
2022/05/11 14:54:49;;;;;;;;;6.80;6.20;;;;;;;;5008790;28;8774;-63
2022/05/11 15:02:46;;;;;;;;;3.80;3.80;;;;;;;;4996189;28;8770;-62
2022/05/11 15:05:14;;;;;;;;;12.00;9.00;;;;;;;;4997248;28;8876;-63
2022/05/11 15:07:41;;;;;;;;;7.20;6.20;;;;;;;;4996776;28;9454;-63
2022/05/11 15:10:08;;;;;;;;;6.20;5.60;;;;;;;;5008325;28;9440;-63
2022/05/11 15:15:20;;;;;;;;;6.40;6.40;;;;;;;;5017105;28;8759;-62
2022/05/11 15:17:47;;;;;;;;;4.80;4.80;;;;;;;;5021306;28;8747;-63
2022/05/11 15:20:14;;;;;;;;;7.40;5.00;;;;;;;;5020813;28;8758;-63
2022/05/11 15:22:41;;;;;;;;;5.80;5.80;;;;;;;;5012422;28;9428;-63
2022/05/11 15:25:11;;;;;;;;;3.20;3.20;;;;;;;;5017792;28;8814;-63
2022/05/11 15:27:39;;;;;;;;;4.40;3.40;;;;;;;;4981369;28;8834;-63
2022/05/11 15:30:06;;;;;;;;;4.20;4.20;;;;;;;;4986157;28;8780;-63
2022/05/11 15:32:33;;;;;;;;;2.20;2.20;;;;;;;;4989164;28;8876;-63
2022/05/11 15:35:00;;;;;;;;;3.20;1.00;;;;;;;;4981377;28;9431;-61
2022/05/11 15:37:26;;;;;;;;;5.20;5.20;;;;;;;;4981187;28;8867;-62
2022/05/11 15:39:53;;;;;;;;;7.00;3.80;;;;;;;;4998578;28;8767;-63
2022/05/11 15:42:23;;;;;;;;;4.40;4.40;;;;;;;;5019853;28;8877;-63
2022/05/11 15:44:50;;;;;;;;;7.00;5.60;;;;;;;;5018782;28;8781;-63
2022/05/11 15:47:17;;;;;;;;;5.40;4.20;;;;;;;;5020288;28;8793;-62
2022/05/11 15:49:44;;;;;;;;;7.20;5.80;;;;;;;;5028963;28;8855;-63
2022/05/11 15:52:13;;;;;;;;;4.60;4.60;;;;;;;;5040435;28;8752;-63
2022/05/11 15:54:39;;;;;;;;;5.00;5.00;;;;;;;;5039242;28;8796;-63
2022/05/11 15:57:06;;;;;;;;;5.20;4.40;;;;;;;;5039734;28;8741;-63